Time;durP1;ratioP1;P1;durP2;ratioP2;P2;SDS_P1;SDS_P2;PMS_P1;PMS_P2;Temp;Humidity;BMP_temperature;BMP_pressure;BME280_temperature;BME280_humidity;BME280_pressure;Samples;Min_cycle;Max_cycle;Signal;HPM_P1;HPM_P2
2023/10/26 08:41:57;;;;;;;1.33;1.23;;;;;;;16.86;82.30;97003.78;3658912;22;61322665;-88
2023/10/26 08:44:42;;;;;;;1.43;1.27;;;;;;;18.56;74.62;97025.06;6147348;23;41532;-88
2023/10/26 08:47:36;;;;;;;0.83;0.80;;;;;;;19.79;69.13;97042.59;6172595;23;39370;-87
2023/10/26 08:50:24;;;;;;;1.10;0.73;;;;;;;20.05;62.50;97062.38;6172499;23;43362;-88
2023/10/26 08:53:11;;;;;;;1.03;0.87;;;;;;;19.33;62.18;97024.31;6171717;23;43392;-88
2023/10/26 08:58:35;;;;;;;1.13;1.00;;;;;;;18.55;64.85;97041.31;6319391;22;40434;-91
2023/10/26 09:01:24;;;;;;;1.47;1.03;;;;;;;18.30;64.49;97030.94;6295427;22;42428;-90
2023/10/26 09:03:57;;;;;;;1.33;0.90;;;;;;;18.97;61.43;97078.94;6295233;22;41973;-90
2023/10/26 09:06:32;;;;;;;1.20;1.10;;;;;;;19.45;59.62;97081.81;6294855;22;41406;-86
2023/10/26 09:09:49;;;;;;;0.70;0.70;;;;;;;20.30;57.23;97069.94;6295172;22;40425;-86
2023/10/26 09:12:16;;;;;;;1.00;1.00;;;;;;;21.30;52.42;97106.88;6295744;22;41067;-86
2023/10/26 09:18:11;;;;;;;1.00;0.73;;;;;;;19.88;55.71;97087.13;6296783;22;42515;-89
2023/10/26 09:21:10;;;;;;;0.90;0.90;;;;;;;19.31;57.19;97074.69;6296493;22;38950;-87
2023/10/26 09:24:21;;;;;;;0.70;0.70;;;;;;;18.73;58.41;97068.56;6295680;22;40820;-87
2023/10/26 09:26:53;;;;;;;2.20;0.90;;;;;;;18.53;59.05;97091.63;6296188;22;41627;-89
2023/10/26 09:30:00;;;;;;;0.80;0.80;;;;;;;18.22;60.16;97092.69;6296102;22;43445;-88
2023/10/26 09:32:48;;;;;;;1.73;0.73;;;;;;;17.99;59.91;97121.44;6296601;22;39394;-88
2023/10/26 09:35:25;;;;;;;0.83;0.83;;;;;;;17.98;60.38;97116.25;6293462;22;41324;-84
2023/10/26 09:37:53;;;;;;;0.70;0.70;;;;;;;18.22;60.89;97102.59;6290236;22;41561;-92
2023/10/26 09:40:21;;;;;;;2.63;0.93;;;;;;;18.67;61.53;97075.50;6290009;22;41677;-86
2023/10/26 09:42:49;;;;;;;1.00;0.80;;;;;;;19.14;59.30;97084.88;6289833;22;40198;-88
2023/10/26 09:45:18;;;;;;;1.00;0.63;;;;;;;19.08;58.54;97091.00;6289922;22;40730;-88
2023/10/26 09:47:47;;;;;;;0.80;0.80;;;;;;;18.93;58.71;97100.94;6290319;22;43320;-89
2023/10/26 09:50:15;;;;;;;0.87;0.77;;;;;;;18.65;57.62;97106.25;6313238;22;42914;-90
2023/10/26 09:52:44;;;;;;;0.60;0.60;;;;;;;18.27;58.35;97109.06;6288989;22;39325;-87
2023/10/26 09:55:12;;;;;;;0.70;0.70;;;;;;;17.98;58.82;97097.53;6288368;22;42743;-91
2023/10/26 09:57:45;;;;;;;0.80;0.80;;;;;;;18.06;59.42;97127.72;6288785;22;41935;-90
2023/10/26 10:00:13;;;;;;;2.17;0.97;;;;;;;17.91;60.42;97116.19;6288531;22;41190;-93
2023/10/26 10:02:41;;;;;;;0.67;0.67;;;;;;;17.83;60.44;97116.25;6314879;22;40160;-91
2023/10/26 10:05:36;;;;;;;0.70;0.60;;;;;;;17.78;62.06;97113.31;6288366;22;40881;-91
2023/10/26 10:08:05;;;;;;;1.53;0.80;;;;;;;17.50;62.43;97092.47;6288905;22;42566;-91
2023/10/26 10:10:33;;;;;;;1.47;0.73;;;;;;;17.41;62.11;97096.25;6288085;22;43733;-91
2023/10/26 10:13:01;;;;;;;0.83;0.83;;;;;;;17.22;62.53;97080.69;6289021;22;40773;-91
2023/10/26 10:15:38;;;;;;;1.27;0.77;;;;;;;17.04;62.65;97082.88;6290607;22;41035;-91
2023/10/26 10:18:06;;;;;;;1.13;0.90;;;;;;;17.00;63.45;97097.59;6292100;22;41843;-88
2023/10/26 10:20:35;;;;;;;0.73;0.73;;;;;;;16.91;63.37;97104.03;6310860;22;42571;-89
2023/10/26 10:23:05;;;;;;;0.80;0.80;;;;;;;16.82;63.74;97098.72;6299629;22;39435;-91
2023/10/26 10:26:00;;;;;;;1.57;0.80;;;;;;;16.80;63.84;97103.44;6288276;22;40731;-92
2023/10/26 10:28:51;;;;;;;1.10;1.00;;;;;;;16.78;64.43;97102.78;6288708;22;44407;-92
2023/10/26 10:31:39;;;;;;;0.90;0.90;;;;;;;16.56;64.41;97094.69;6314215;22;43221;-91
2023/10/26 10:34:10;;;;;;;1.23;1.13;;;;;;;16.37;65.06;97085.28;6289034;22;39446;-91
2023/10/26 10:37:14;;;;;;;1.57;1.00;;;;;;;16.38;66.02;97109.16;6289874;22;40957;-91
2023/10/26 10:40:12;;;;;;;0.90;0.90;;;;;;;16.23;67.14;97104.69;6288047;22;41491;-90
2023/10/26 10:42:41;;;;;;;2.13;0.90;;;;;;;16.04;68.05;97080.09;6288614;22;42380;-92
2023/10/26 10:45:12;;;;;;;2.23;0.63;;;;;;;15.97;68.22;97089.78;6288062;22;41367;-91
2023/10/26 10:47:40;;;;;;;0.90;0.80;;;;;;;15.87;69.16;97073.16;6290893;22;41969;-90
2023/10/26 10:50:18;;;;;;;1.10;0.83;;;;;;;15.88;69.55;97073.97;6287914;22;43114;-90
2023/10/26 10:52:45;;;;;;;0.87;0.87;;;;;;;16.08;69.16;97084.06;6288290;22;41218;-90
2023/10/26 10:55:19;;;;;;;0.93;0.83;;;;;;;16.11;69.75;97074.88;6313898;22;39357;-91
2023/10/26 10:57:57;;;;;;;3.37;1.57;;;;;;;16.27;69.73;97076.66;6287930;22;41783;-90
2023/10/26 11:00:25;;;;;;;1.10;0.87;;;;;;;16.19;69.39;97056.16;6287832;22;41799;-91
2023/10/26 11:02:56;;;;;;;1.43;1.07;;;;;;;16.21;69.56;97058.63;6287811;22;41201;-91
2023/10/26 11:05:36;;;;;;;1.03;1.00;;;;;;;16.16;69.23;97038.66;6287879;22;38854;-90
2023/10/26 11:08:03;;;;;;;1.07;1.00;;;;;;;16.12;69.15;97034.66;6288249;22;42434;-91
2023/10/26 11:10:32;;;;;;;1.10;0.93;;;;;;;16.19;69.50;97066.03;6288014;22;41859;-92
2023/10/26 11:13:00;;;;;;;2.30;1.47;;;;;;;16.10;69.60;97031.31;6288887;22;43318;-90
2023/10/26 11:15:34;;;;;;;1.27;1.13;;;;;;;16.09;70.15;97039.50;6289168;22;39167;-91
2023/10/26 11:18:03;;;;;;;1.10;1.00;;;;;;;16.23;70.44;97062.81;6289533;22;41971;-91
2023/10/26 11:20:36;;;;;;;1.30;1.20;;;;;;;16.08;70.53;97011.97;6314841;22;43739;-91
2023/10/26 11:23:04;;;;;;;1.20;0.97;;;;;;;16.23;70.76;97037.94;6289007;22;42556;-90
2023/10/26 11:25:33;;;;;;;0.97;0.90;;;;;;;16.07;70.76;97015.66;6289386;22;40779;-90
2023/10/26 11:28:01;;;;;;;1.63;1.20;;;;;;;16.04;71.33;97015.19;6289478;22;40928;-90
2023/10/26 11:30:30;;;;;;;1.07;1.00;;;;;;;16.01;71.76;97029.72;6289299;22;41993;-89
2023/10/26 11:32:57;;;;;;;1.00;1.00;;;;;;;15.84;71.41;97014.75;6288689;22;42858;-90
2023/10/26 11:35:26;;;;;;;2.93;1.07;;;;;;;15.81;71.99;97015.13;6288858;22;38851;-89
2023/10/26 11:37:55;;;;;;;0.90;0.90;;;;;;;15.77;71.92;97024.47;6289324;22;41062;-87
2023/10/26 11:40:30;;;;;;;1.47;1.37;;;;;;;15.71;72.94;97019.81;6314278;22;43220;-86
2023/10/26 11:43:00;;;;;;;1.30;1.20;;;;;;;15.68;72.89;97025.53;6313046;22;42087;-88
2023/10/26 11:45:28;;;;;;;0.90;0.90;;;;;;;15.54;73.30;97010.19;6313679;22;40385;-90
2023/10/26 11:47:58;;;;;;;1.13;1.00;;;;;;;15.49;73.69;96984.03;6283224;22;41845;-90
2023/10/26 11:50:28;;;;;;;1.53;1.43;;;;;;;15.64;73.91;97002.84;6285859;22;41874;-89
2023/10/26 11:52:58;;;;;;;1.40;1.30;;;;;;;15.57;74.19;96983.22;6313027;22;42544;-89
2023/10/26 11:55:27;;;;;;;1.17;1.10;;;;;;;15.66;74.57;96984.84;6288116;22;41235;-89
2023/10/26 11:57:56;;;;;;;1.90;1.67;;;;;;;15.67;75.13;96986.50;6313276;22;42838;-89
2023/10/26 12:00:28;;;;;;;2.93;1.60;;;;;;;15.69;75.21;96985.31;6288092;22;42076;-90
2023/10/26 12:02:56;;;;;;;1.80;1.70;;;;;;;15.57;75.64;96964.53;6287946;22;42101;-88
2023/10/26 12:05:25;;;;;;;1.73;1.63;;;;;;;15.61;76.25;96990.69;6287742;22;41846;-89
2023/10/26 12:07:53;;;;;;;1.63;1.50;;;;;;;15.53;76.83;96995.19;6288159;22;40814;-88
2023/10/26 12:10:24;;;;;;;2.77;1.60;;;;;;;15.41;76.97;96976.06;6287197;22;42633;-89
2023/10/26 12:12:51;;;;;;;1.30;1.27;;;;;;;15.43;77.45;96961.56;6288712;22;41560;-88
2023/10/26 12:15:20;;;;;;;2.20;2.00;;;;;;;15.57;78.32;96975.22;6315000;22;39991;-88
2023/10/26 12:17:49;;;;;;;2.43;2.23;;;;;;;15.73;79.08;96964.44;6289609;22;41568;-89
2023/10/26 12:20:17;;;;;;;2.70;2.23;;;;;;;15.88;79.31;96970.72;6288968;22;43524;-87
2023/10/26 12:22:45;;;;;;;2.83;2.63;;;;;;;16.08;78.99;96995.94;6289239;22;41715;-86
2023/10/26 12:25:13;;;;;;;1.70;1.60;;;;;;;16.04;78.74;97005.34;6289005;22;40450;-86
2023/10/26 12:27:41;;;;;;;1.83;1.40;;;;;;;16.06;78.98;97002.50;6289203;22;43964;-88
2023/10/26 12:30:09;;;;;;;2.00;1.40;;;;;;;15.96;79.02;96992.00;6286636;22;41632;-88
2023/10/26 12:32:37;;;;;;;1.30;1.20;;;;;;;15.88;78.66;96981.38;6285399;22;42590;-89
2023/10/26 12:35:07;;;;;;;2.40;1.00;;;;;;;15.83;78.76;96997.09;6288286;22;39382;-88
2023/10/26 12:37:37;;;;;;;2.00;1.23;;;;;;;15.89;79.06;97001.75;6285905;22;41029;-87
2023/10/26 12:40:08;;;;;;;1.30;1.20;;;;;;;15.80;79.17;97002.78;6287557;22;43238;-89
2023/10/26 12:42:35;;;;;;;1.30;1.20;;;;;;;15.86;80.07;97007.41;6284827;22;41153;-89
2023/10/26 12:45:04;;;;;;;1.00;1.00;;;;;;;15.80;80.01;97010.78;6286517;22;40157;-88
2023/10/26 12:47:31;;;;;;;0.93;0.80;;;;;;;15.68;80.10;96986.34;6287053;22;42085;-89
2023/10/26 12:49:59;;;;;;;1.30;1.20;;;;;;;15.73;80.42;96997.28;6286397;22;42906;-89
2023/10/26 12:52:28;;;;;;;1.20;1.10;;;;;;;15.64;80.53;96985.00;6285323;22;41243;-88
2023/10/26 12:54:56;;;;;;;1.30;1.10;;;;;;;15.71;80.59;96987.78;6287072;22;39377;-89
2023/10/26 12:57:23;;;;;;;2.07;1.30;;;;;;;15.65;80.46;96978.66;6286328;22;41957;-87
2023/10/26 12:59:51;;;;;;;2.07;1.43;;;;;;;15.67;80.52;96995.34;6311799;22;43132;-88
2023/10/26 13:02:19;;;;;;;2.93;0.83;;;;;;;15.67;81.46;96998.00;6286393;22;41412;-88
2023/10/26 13:04:46;;;;;;;1.00;0.97;;;;;;;15.65;81.06;96986.66;6312180;22;38673;-88
2023/10/26 13:07:14;;;;;;;2.27;2.07;;;;;;;15.69;80.28;96973.81;6285736;22;40610;-87
2023/10/26 13:09:44;;;;;;;1.83;1.50;;;;;;;15.72;79.64;96957.44;6288047;22;41995;-87
2023/10/26 13:12:11;;;;;;;2.10;1.27;;;;;;;15.93;79.50;96949.66;6295781;22;41187;-86
2023/10/26 13:14:40;;;;;;;1.40;1.30;;;;;;;16.04;79.26;96941.25;6293121;22;40408;-88
2023/10/26 13:17:07;;;;;;;1.20;1.20;;;;;;;16.22;78.07;96953.47;6289235;22;40891;-88
2023/10/26 13:19:35;;;;;;;0.73;0.70;;;;;;;16.08;78.50;96904.34;6289540;22;42968;-88
2023/10/26 13:22:03;;;;;;;0.80;0.80;;;;;;;16.08;78.30;96897.16;6288593;22;42472;-89
2023/10/26 13:24:30;;;;;;;0.90;0.90;;;;;;;16.26;77.66;96928.91;6288919;22;40659;-88
2023/10/26 13:26:59;;;;;;;0.80;0.80;;;;;;;16.20;78.29;96924.28;6288838;22;41743;-87
2023/10/26 13:29:27;;;;;;;0.97;0.83;;;;;;;16.31;78.13;96936.41;6288710;22;42962;-87
2023/10/26 13:31:54;;;;;;;1.27;0.90;;;;;;;16.33;78.77;96929.03;6314756;22;42329;-87
2023/10/26 13:34:22;;;;;;;3.33;1.10;;;;;;;16.27;78.88;96929.75;6312891;22;39398;-87
2023/10/26 13:36:49;;;;;;;0.60;0.60;;;;;;;16.18;78.83;96923.66;6286595;22;40594;-88
2023/10/26 13:39:17;;;;;;;1.10;0.83;;;;;;;16.03;78.12;96918.22;6313911;22;42390;-88
2023/10/26 13:41:45;;;;;;;1.90;1.03;;;;;;;16.05;78.20;96932.25;6287312;22;41593;-89
2023/10/26 13:44:14;;;;;;;1.00;0.77;;;;;;;16.03;77.71;96933.41;6287029;22;38971;-88
2023/10/26 13:46:41;;;;;;;1.53;1.03;;;;;;;15.87;78.03;96917.50;6287335;22;42034;-89
2023/10/26 13:49:10;;;;;;;2.57;1.10;;;;;;;15.87;78.58;96918.34;6288300;22;42001;-88
2023/10/26 13:51:37;;;;;;;3.13;1.10;;;;;;;15.85;77.77;96915.00;6287030;22;42313;-88
2023/10/26 13:54:05;;;;;;;1.67;0.80;;;;;;;15.86;78.56;96910.50;6313707;22;39201;-88
2023/10/26 13:56:34;;;;;;;0.77;0.77;;;;;;;15.89;78.37;96910.97;6287873;22;40728;-88
2023/10/26 13:59:01;;;;;;;3.27;0.83;;;;;;;15.72;78.61;96885.38;6261726;22;41770;-90
2023/10/26 14:01:33;;;;;;;0.80;0.63;;;;;;;15.80;78.43;96901.38;6288720;22;42818;-89
2023/10/26 14:04:01;;;;;;;0.80;0.80;;;;;;;15.89;78.38;96905.66;6288363;22;38585;-89
2023/10/26 14:06:28;;;;;;;1.40;0.70;;;;;;;15.80;78.41;96893.38;6287328;22;41671;-88
2023/10/26 14:08:59;;;;;;;1.60;0.80;;;;;;;15.73;78.37;96903.06;6314188;22;43904;-89
2023/10/26 14:11:28;;;;;;;1.20;0.80;;;;;;;15.73;78.53;96917.25;6288385;22;42454;-87
2023/10/26 14:13:55;;;;;;;0.90;0.83;;;;;;;15.68;78.88;96908.94;6289031;22;40722;-88
2023/10/26 14:16:23;;;;;;;1.67;0.80;;;;;;;15.48;78.52;96870.31;6311801;22;40930;-87
2023/10/26 14:18:52;;;;;;;1.50;0.90;;;;;;;15.65;78.89;96876.44;6290131;22;42922;-91
2023/10/26 14:21:19;;;;;;;2.00;0.83;;;;;;;15.79;78.76;96889.88;6289115;22;43780;-90
2023/10/26 14:23:47;;;;;;;1.30;1.20;;;;;;;15.68;78.90;96854.75;6289774;22;40206;-90
2023/10/26 14:26:15;;;;;;;1.50;0.87;;;;;;;15.68;78.56;96844.91;6288325;22;41320;-89
2023/10/26 14:28:43;;;;;;;1.30;0.90;;;;;;;15.59;78.88;96832.59;6288803;22;45171;-89
2023/10/26 14:31:10;;;;;;;2.23;0.80;;;;;;;15.95;78.58;96885.44;6314223;22;41524;-89
2023/10/26 14:33:38;;;;;;;1.37;1.00;;;;;;;15.86;78.45;96879.28;6289474;22;40967;-89
2023/10/26 14:36:08;;;;;;;1.97;1.00;;;;;;;15.86;78.59;96878.47;6288357;22;41872;-90
2023/10/26 14:38:35;;;;;;;1.07;0.90;;;;;;;15.87;78.42;96874.78;6288849;22;42563;-90
2023/10/26 14:41:03;;;;;;;1.73;0.70;;;;;;;15.88;78.51;96871.13;6287844;22;42346;-90
2023/10/26 14:43:31;;;;;;;1.07;0.97;;;;;;;15.85;77.99;96890.97;6312702;22;39890;-91
2023/10/26 14:45:58;;;;;;;1.00;1.00;;;;;;;15.75;78.60;96882.38;6287796;22;40881;-91
2023/10/26 14:48:26;;;;;;;1.27;1.17;;;;;;;15.67;78.25;96879.75;6287752;22;41599;-90
2023/10/26 14:50:58;;;;;;;0.90;0.80;;;;;;;15.80;78.67;96896.88;6312655;22;41130;-90
2023/10/26 14:53:27;;;;;;;1.67;0.87;;;;;;;15.68;78.81;96882.25;6340363;22;40412;-91
2023/10/26 14:55:59;;;;;;;1.17;0.90;;;;;;;15.71;79.03;96883.72;6313267;22;42681;-90
2023/10/26 14:58:27;;;;;;;1.13;1.03;;;;;;;15.72;79.04;96877.38;6287240;22;41991;-91
2023/10/26 15:00:55;;;;;;;0.80;0.70;;;;;;;15.61;79.18;96867.94;6287476;22;41130;-92
2023/10/26 15:03:23;;;;;;;1.07;0.97;;;;;;;15.66;79.54;96886.09;6287814;22;40010;-90
2023/10/26 15:05:51;;;;;;;1.23;1.00;;;;;;;15.51;79.93;96869.16;6286534;22;40902;-91
2023/10/26 15:08:18;;;;;;;0.90;0.90;;;;;;;15.40;80.56;96862.38;6312610;22;43553;-90
2023/10/26 15:10:49;;;;;;;2.10;0.90;;;;;;;15.35;81.33;96868.22;6287192;22;41486;-89
2023/10/26 15:13:18;;;;;;;1.20;1.10;;;;;;;15.23;82.08;96871.44;6288343;22;38833;-90
2023/10/26 15:15:47;;;;;;;1.00;1.00;;;;;;;15.16;83.36;96887.31;6288676;22;41274;-89
2023/10/26 15:18:14;;;;;;;2.23;0.80;;;;;;;15.08;84.28;96879.34;6288213;22;43166;-89
2023/10/26 15:20:42;;;;;;;0.80;0.80;;;;;;;14.92;84.35;96858.06;6288266;22;41134;-90
2023/10/26 15:23:10;;;;;;;1.10;0.80;;;;;;;14.96;84.50;96867.41;6288819;22;40255;-90
2023/10/26 15:25:37;;;;;;;1.37;0.80;;;;;;;14.94;84.83;96858.75;6288762;22;41004;-91
2023/10/26 15:28:06;;;;;;;2.30;1.00;;;;;;;14.86;85.55;96840.09;6310760;22;43057;-90
2023/10/26 15:30:34;;;;;;;1.33;1.27;;;;;;;14.92;86.43;96858.91;6287455;22;41362;-90
2023/10/26 15:33:02;;;;;;;2.67;1.00;;;;;;;14.77;86.38;96844.63;6287024;22;41056;-89
2023/10/26 15:35:30;;;;;;;1.30;1.17;;;;;;;14.86;86.95;96858.75;6286870;22;40885;-88
2023/10/26 15:37:58;;;;;;;2.13;1.10;;;;;;;14.76;87.26;96842.13;6313051;22;42755;-89
2023/10/26 15:40:27;;;;;;;1.60;1.10;;;;;;;14.86;87.05;96848.09;6287520;22;42578;-89
2023/10/26 15:42:54;;;;;;;1.57;1.00;;;;;;;14.74;87.03;96835.13;6286263;22;38904;-88
2023/10/26 15:45:23;;;;;;;1.20;1.10;;;;;;;14.84;87.06;96850.09;6287643;22;40477;-89
2023/10/26 15:47:51;;;;;;;2.20;0.77;;;;;;;14.74;87.25;96835.13;6286523;22;41848;-89
2023/10/26 15:50:18;;;;;;;1.20;1.10;;;;;;;14.85;86.84;96851.75;6286734;22;41172;-89
2023/10/26 15:52:46;;;;;;;0.80;0.80;;;;;;;14.73;87.52;96838.81;6286689;22;40377;-89
2023/10/26 15:55:13;;;;;;;2.13;1.07;;;;;;;14.72;87.36;96836.31;6287493;22;40546;-90
2023/10/26 15:57:41;;;;;;;1.13;0.90;;;;;;;14.77;88.09;96843.78;6311193;22;43169;-91
2023/10/26 16:00:10;;;;;;;1.10;1.00;;;;;;;14.66;88.43;96831.66;6287609;22;41488;-90
2023/10/26 16:02:44;;;;;;;0.80;0.80;;;;;;;14.63;88.74;96843.50;6300252;22;38956;-89
2023/10/26 16:05:12;;;;;;;0.93;0.80;;;;;;;14.68;88.66;96845.66;6295374;22;40296;-90
2023/10/26 16:07:41;;;;;;;1.60;1.00;;;;;;;14.66;88.45;96851.16;6313019;22;43042;-89
2023/10/26 16:10:09;;;;;;;1.10;0.83;;;;;;;14.56;88.32;96834.53;6287182;22;43749;-89
2023/10/26 16:12:37;;;;;;;0.83;0.63;;;;;;;14.60;88.82;96849.16;6313402;22;39896;-88
2023/10/26 16:15:05;;;;;;;1.10;1.10;;;;;;;14.51;89.35;96839.53;6288553;22;40865;-90
2023/10/26 16:17:36;;;;;;;3.67;1.00;;;;;;;14.47;89.36;96834.69;6312588;22;43502;-89
2023/10/26 16:20:07;;;;;;;1.53;1.27;;;;;;;14.55;89.71;96853.34;6288039;22;42519;-91
2023/10/26 16:22:34;;;;;;;1.40;1.30;;;;;;;14.47;89.90;96843.53;6313881;22;38888;-89
2023/10/26 16:25:03;;;;;;;1.60;1.20;;;;;;;14.49;89.94;96846.00;6280702;22;40977;-89
2023/10/26 16:27:30;;;;;;;3.40;1.40;;;;;;;14.49;90.69;96849.50;6282221;22;43322;-90
2023/10/26 16:29:58;;;;;;;1.50;1.40;;;;;;;14.39;91.09;96832.84;6282577;22;43860;-90
2023/10/26 16:32:26;;;;;;;2.10;1.30;;;;;;;14.42;91.24;96842.38;6308449;22;40953;-89
2023/10/26 16:34:55;;;;;;;2.20;1.37;;;;;;;14.41;90.75;96843.38;6283349;22;43386;-90
2023/10/26 16:37:24;;;;;;;1.30;1.20;;;;;;;14.37;90.77;96833.03;6282801;22;41611;-89
2023/10/26 16:39:51;;;;;;;1.40;1.30;;;;;;;14.42;91.55;96840.56;6308323;22;42933;-89
2023/10/26 16:42:19;;;;;;;2.13;1.50;;;;;;;14.38;91.58;96840.00;6290682;22;41515;-89
2023/10/26 16:44:47;;;;;;;1.50;1.20;;;;;;;14.22;92.07;96825.88;6299030;22;40546;-89
2023/10/26 16:47:14;;;;;;;2.20;1.50;;;;;;;14.31;92.97;96847.03;6299449;22;42516;-88
2023/10/26 16:49:42;;;;;;;1.50;1.40;;;;;;;14.42;92.75;96861.03;6324263;22;42702;-89
2023/10/26 16:52:09;;;;;;;1.90;1.50;;;;;;;14.25;93.00;96836.19;6297603;22;39746;-89
2023/10/26 16:54:38;;;;;;;1.43;1.33;;;;;;;14.16;94.00;96813.25;6298582;22;44681;-89
2023/10/26 16:57:07;;;;;;;1.20;1.03;;;;;;;14.32;93.69;96842.53;6294282;22;41886;-89
2023/10/26 16:59:35;;;;;;;2.77;1.50;;;;;;;14.27;93.71;96828.88;6287827;22;42533;-90
2023/10/26 17:02:02;;;;;;;1.43;1.33;;;;;;;14.18;93.87;96805.94;6287662;22;39931;-89
2023/10/26 17:04:31;;;;;;;1.53;1.40;;;;;;;14.21;93.62;96805.63;6287742;22;42034;-90
2023/10/26 17:06:58;;;;;;;2.60;1.53;;;;;;;14.40;93.14;96839.88;6288243;22;42549;-89
2023/10/26 17:09:27;;;;;;;2.07;1.70;;;;;;;14.31;93.44;96831.06;6313685;22;43347;-89
2023/10/26 17:11:56;;;;;;;2.10;1.40;;;;;;;14.29;93.29;96821.56;6314296;22;40662;-90
2023/10/26 17:14:23;;;;;;;2.00;1.40;;;;;;;14.30;93.46;96821.41;6289860;22;41938;-89
2023/10/26 17:16:51;;;;;;;1.40;1.30;;;;;;;14.29;93.54;96816.25;6288838;22;43106;-89
2023/10/26 17:19:18;;;;;;;2.10;1.63;;;;;;;14.26;93.84;96824.56;6315160;22;41542;-89
2023/10/26 17:21:46;;;;;;;4.20;1.90;;;;;;;14.28;94.12;96822.56;6289673;22;40073;-89
2023/10/26 17:24:12;;;;;;;1.80;1.60;;;;;;;14.22;93.61;96812.56;6287106;22;40822;-89
2023/10/26 17:26:40;;;;;;;2.37;1.33;;;;;;;14.20;93.54;96809.28;6287247;22;45002;-89
2023/10/26 17:29:09;;;;;;;2.20;1.70;;;;;;;14.21;93.83;96808.28;6287372;22;40918;-88
2023/10/26 17:31:36;;;;;;;1.30;1.20;;;;;;;14.17;93.99;96810.44;6313090;22;38911;-89
2023/10/26 17:34:04;;;;;;;2.13;1.83;;;;;;;14.17;94.46;96802.44;6313725;22;40827;-89
2023/10/26 17:36:32;;;;;;;2.03;1.60;;;;;;;14.12;94.64;96801.28;6313223;22;43824;-89
2023/10/26 17:38:59;;;;;;;1.87;1.67;;;;;;;14.16;94.61;96805.28;6287501;22;42063;-89
2023/10/26 17:41:27;;;;;;;3.03;1.90;;;;;;;14.16;94.53;96802.59;6288269;22;39588;-89
2023/10/26 17:43:54;;;;;;;2.93;2.17;;;;;;;14.16;94.67;96811.44;6313508;22;41692;-89
2023/10/26 17:46:23;;;;;;;2.93;1.70;;;;;;;14.17;95.11;96830.91;6287279;22;43013;-89
2023/10/26 17:48:51;;;;;;;2.93;1.90;;;;;;;14.13;94.87;96824.22;6287593;22;41310;-88
2023/10/26 17:51:19;;;;;;;1.63;1.50;;;;;;;14.01;94.79;96818.41;6288386;22;39931;-90
